Time;durP1;ratioP1;P1;durP2;ratioP2;P2;SDS_P1;SDS_P2;PMS_P1;PMS_P2;Temp;Humidity;BMP_temperature;BMP_pressure;BME280_temperature;BME280_humidity;BME280_pressure;Samples;Min_cycle;Max_cycle;Signal;HPM_P1;HPM_P2
2022/03/03 00:01:22;;;;;;;25.33;11.53;;;;;;;;;;5024051;28;20596;-67
2022/03/03 00:03:47;;;;;;;25.10;11.40;;;;;;;;;;5042410;28;20641;-66
2022/03/03 00:06:12;;;;;;;24.60;12.40;;;;;;;;;;5022961;28;20194;-66
2022/03/03 00:08:38;;;;;;;25.10;11.57;;;;;;;;;;5026854;28;20190;-66
2022/03/03 00:11:03;;;;;;;26.40;11.63;;;;;;;;;;5027723;28;20536;-66
2022/03/03 00:13:28;;;;;;;25.00;12.27;;;;;;;;;;5024054;28;20279;-66
2022/03/03 00:15:54;;;;;;;26.00;11.73;;;;;;;;;;5019703;28;20208;-66
2022/03/03 00:18:19;;;;;;;23.70;10.53;;;;;;;;;;5024560;28;20186;-66
2022/03/03 00:20:44;;;;;;;22.87;11.17;;;;;;;;;;5027595;28;20193;-66
2022/03/03 00:23:10;;;;;;;22.70;10.57;;;;;;;;;;5025266;28;20205;-66
2022/03/03 00:25:35;;;;;;;24.90;12.03;;;;;;;;;;5020976;28;20562;-66
2022/03/03 00:28:04;;;;;;;30.40;12.23;;;;;;;;;;5025199;28;20235;-66
2022/03/03 00:30:29;;;;;;;27.13;11.87;;;;;;;;;;5022004;28;20306;-67
2022/03/03 00:32:55;;;;;;;24.57;11.80;;;;;;;;;;5024894;28;20284;-67
2022/03/03 00:35:20;;;;;;;25.10;12.07;;;;;;;;;;5026782;28;20203;-67
2022/03/03 00:37:46;;;;;;;26.37;12.17;;;;;;;;;;5023784;28;20190;-65
2022/03/03 00:40:12;;;;;;;25.50;12.10;;;;;;;;;;5026086;28;20747;-66
2022/03/03 00:42:38;;;;;;;25.73;12.53;;;;;;;;;;5024744;28;20190;-66
2022/03/03 00:45:04;;;;;;;25.40;11.70;;;;;;;;;;5022674;28;20189;-67
2022/03/03 00:47:29;;;;;;;26.30;11.27;;;;;;;;;;5022423;28;20556;-66
2022/03/03 00:49:54;;;;;;;25.93;12.57;;;;;;;;;;5019476;28;20193;-66
2022/03/03 00:52:20;;;;;;;26.43;12.20;;;;;;;;;;5027819;28;20186;-66
2022/03/03 00:54:45;;;;;;;28.53;12.30;;;;;;;;;;5026271;28;20304;-66
2022/03/03 00:57:11;;;;;;;28.30;13.30;;;;;;;;;;5023578;28;20201;-66
2022/03/03 00:59:36;;;;;;;26.23;12.57;;;;;;;;;;5026032;28;20189;-67
2022/03/03 01:02:02;;;;;;;24.57;12.07;;;;;;;;;;5019201;28;20236;-67
2022/03/03 01:04:27;;;;;;;24.63;11.50;;;;;;;;;;5035059;28;20170;-67
2022/03/03 01:06:52;;;;;;;29.30;12.10;;;;;;;;;;5024105;28;20201;-66
2022/03/03 01:09:18;;;;;;;25.23;11.77;;;;;;;;;;5025528;28;20185;-66
2022/03/03 01:11:43;;;;;;;23.97;11.87;;;;;;;;;;5027720;28;20189;-66
2022/03/03 01:14:08;;;;;;;25.37;12.23;;;;;;;;;;5024273;28;20201;-67
2022/03/03 01:16:34;;;;;;;27.53;12.63;;;;;;;;;;5025260;28;20274;-66
2022/03/03 01:18:59;;;;;;;26.53;11.63;;;;;;;;;;5022841;28;20197;-66
2022/03/03 01:21:24;;;;;;;24.33;11.63;;;;;;;;;;5025124;28;20209;-66
2022/03/03 01:23:50;;;;;;;27.37;12.43;;;;;;;;;;5032582;28;20591;-66
2022/03/03 01:26:15;;;;;;;22.77;11.47;;;;;;;;;;5034795;28;20186;-66
2022/03/03 01:28:41;;;;;;;25.67;11.70;;;;;;;;;;5026158;28;20194;-66
2022/03/03 01:31:06;;;;;;;26.70;12.63;;;;;;;;;;5011885;28;20284;-66
2022/03/03 01:33:32;;;;;;;27.83;11.97;;;;;;;;;;5022655;28;20398;-66
2022/03/03 01:35:57;;;;;;;24.53;11.53;;;;;;;;;;5026129;28;20285;-66
2022/03/03 01:38:22;;;;;;;22.60;10.90;;;;;;;;;;5026347;28;20625;-66
2022/03/03 01:40:48;;;;;;;26.00;11.87;;;;;;;;;;5024865;28;20190;-67
2022/03/03 01:43:13;;;;;;;24.97;11.90;;;;;;;;;;5024182;28;20360;-67
2022/03/03 01:45:38;;;;;;;25.23;11.57;;;;;;;;;;5026532;28;20198;-66
2022/03/03 01:48:04;;;;;;;31.20;12.40;;;;;;;;;;5025653;28;20606;-66
2022/03/03 01:50:29;;;;;;;24.33;12.00;;;;;;;;;;5021623;28;20560;-66
2022/03/03 01:52:55;;;;;;;23.97;11.83;;;;;;;;;;5025633;28;20588;-66
2022/03/03 01:55:22;;;;;;;26.33;12.90;;;;;;;;;;5022651;28;20204;-66
2022/03/03 01:57:49;;;;;;;24.63;11.27;;;;;;;;;;5024673;28;20296;-66
2022/03/03 02:00:15;;;;;;;26.50;12.20;;;;;;;;;;5022890;28;20281;-67
2022/03/03 02:02:41;;;;;;;29.23;12.73;;;;;;;;;;5021006;28;20815;-67
2022/03/03 02:05:07;;;;;;;20.83;11.73;;;;;;;;;;5018273;28;21196;-65
2022/03/03 02:07:33;;;;;;;24.30;12.37;;;;;;;;;;5024782;28;20192;-67
2022/03/03 02:10:00;;;;;;;24.93;11.87;;;;;;;;;;5025892;28;20197;-67
2022/03/03 02:12:26;;;;;;;27.27;12.40;;;;;;;;;;5022706;28;20194;-67
2022/03/03 02:14:51;;;;;;;24.97;12.40;;;;;;;;;;5034215;28;20612;-65
2022/03/03 02:17:17;;;;;;;22.33;11.30;;;;;;;;;;5022578;28;20210;-66
2022/03/03 02:19:43;;;;;;;29.30;11.83;;;;;;;;;;5027818;28;20190;-66
2022/03/03 02:22:09;;;;;;;26.03;11.50;;;;;;;;;;5022112;28;20193;-66
2022/03/03 02:24:35;;;;;;;30.13;12.47;;;;;;;;;;5022800;28;20193;-66
2022/03/03 02:27:02;;;;;;;25.60;12.00;;;;;;;;;;5023990;28;20726;-66
2022/03/03 02:29:28;;;;;;;23.33;11.23;;;;;;;;;;5031921;28;20181;-66
2022/03/03 02:31:54;;;;;;;26.80;11.30;;;;;;;;;;5021930;28;20255;-67
2022/03/03 02:34:19;;;;;;;26.17;12.03;;;;;;;;;;5024458;28;20213;-67
2022/03/03 02:36:45;;;;;;;25.67;11.63;;;;;;;;;;5024396;28;20205;-67
2022/03/03 02:39:10;;;;;;;24.13;11.47;;;;;;;;;;5026235;28;20220;-66
2022/03/03 02:41:37;;;;;;;25.67;11.10;;;;;;;;;;5025134;28;20190;-66
2022/03/03 02:44:03;;;;;;;26.73;11.60;;;;;;;;;;5031696;28;20178;-66
2022/03/03 02:46:29;;;;;;;25.40;11.17;;;;;;;;;;5026590;28;20214;-66
2022/03/03 02:48:55;;;;;;;28.03;12.43;;;;;;;;;;5031479;28;20699;-66
2022/03/03 02:51:21;;;;;;;26.97;11.80;;;;;;;;;;5028121;28;20189;-66
2022/03/03 02:53:46;;;;;;;26.17;12.20;;;;;;;;;;5031011;28;20576;-66
2022/03/03 02:56:12;;;;;;;23.97;11.40;;;;;;;;;;5024642;28;20190;-66
2022/03/03 02:58:37;;;;;;;26.80;12.80;;;;;;;;;;5029392;28;20174;-66
2022/03/03 03:01:04;;;;;;;29.73;12.40;;;;;;;;;;5027078;28;20193;-66
2022/03/03 03:03:30;;;;;;;30.17;11.87;;;;;;;;;;5026837;28;20226;-66
2022/03/03 03:05:56;;;;;;;25.97;11.60;;;;;;;;;;5024451;28;20190;-66
2022/03/03 03:08:21;;;;;;;26.47;11.93;;;;;;;;;;5028327;28;20189;-67
2022/03/03 03:10:46;;;;;;;26.60;11.47;;;;;;;;;;5027626;28;20206;-66
2022/03/03 03:13:14;;;;;;;26.63;11.87;;;;;;;;;;5030091;28;20328;-67
2022/03/03 03:15:41;;;;;;;25.50;11.03;;;;;;;;;;5028665;28;20327;-66
2022/03/03 03:18:19;;;;;;;22.27;10.83;;;;;;;;;;5028561;28;20586;-67
2022/03/03 03:20:48;;;;;;;22.67;11.67;;;;;;;;;;5028719;28;20307;-66
2022/03/03 03:23:15;;;;;;;24.23;10.67;;;;;;;;;;5028951;28;20174;-67
2022/03/03 03:25:43;;;;;;;27.53;11.37;;;;;;;;;;5028202;28;20190;-66
2022/03/03 03:28:09;;;;;;;29.90;12.30;;;;;;;;;;5030672;28;20209;-67
2022/03/03 03:30:35;;;;;;;25.90;11.33;;;;;;;;;;5026388;28;20213;-66
2022/03/03 03:33:00;;;;;;;24.73;10.83;;;;;;;;;;5027606;28;20198;-66
2022/03/03 03:35:26;;;;;;;25.20;10.93;;;;;;;;;;5027709;28;20197;-66
2022/03/03 03:37:51;;;;;;;28.90;11.87;;;;;;;;;;5032254;28;20276;-66
2022/03/03 03:40:17;;;;;;;32.20;11.80;;;;;;;;;;5030007;28;20705;-66
2022/03/03 03:42:42;;;;;;;32.40;12.13;;;;;;;;;;5026654;28;20196;-66
2022/03/03 03:45:09;;;;;;;27.27;11.43;;;;;;;;;;5026638;28;20182;-66
2022/03/03 03:47:34;;;;;;;28.43;11.80;;;;;;;;;;5025835;28;20182;-67
2022/03/03 03:50:02;;;;;;;29.67;12.00;;;;;;;;;;5029151;28;20190;-66
2022/03/03 03:52:28;;;;;;;28.67;12.00;;;;;;;;;;5024114;28;20182;-66
2022/03/03 03:54:53;;;;;;;25.47;11.60;;;;;;;;;;5028297;28;20275;-67
2022/03/03 03:57:19;;;;;;;28.73;12.73;;;;;;;;;;5024340;28;20194;-65
2022/03/03 03:59:44;;;;;;;29.17;11.23;;;;;;;;;;5029193;28;20194;-65
2022/03/03 04:02:10;;;;;;;30.40;12.67;;;;;;;;;;5023520;28;20228;-65
2022/03/03 04:04:35;;;;;;;26.30;12.60;;;;;;;;;;5026704;28;20209;-67
2022/03/03 04:07:01;;;;;;;29.53;12.73;;;;;;;;;;5025986;28;20224;-66
2022/03/03 04:09:26;;;;;;;30.23;12.00;;;;;;;;;;5029584;28;20693;-66
2022/03/03 04:11:52;;;;;;;28.77;12.30;;;;;;;;;;5026840;28;20212;-66
2022/03/03 04:14:17;;;;;;;27.60;12.47;;;;;;;;;;5025777;28;20417;-66
2022/03/03 04:16:42;;;;;;;28.13;12.03;;;;;;;;;;5025738;28;20182;-66
2022/03/03 04:19:07;;;;;;;29.10;13.10;;;;;;;;;;5026176;28;20248;-65
2022/03/03 04:21:33;;;;;;;25.27;12.20;;;;;;;;;;5025787;28;20190;-67
2022/03/03 04:23:58;;;;;;;28.47;12.77;;;;;;;;;;5028440;28;20613;-66
2022/03/03 04:26:24;;;;;;;28.53;12.33;;;;;;;;;;5026805;28;20190;-66
2022/03/03 04:28:50;;;;;;;26.03;13.10;;;;;;;;;;5028410;28;20277;-66
2022/03/03 04:31:15;;;;;;;27.37;12.30;;;;;;;;;;5025040;28;20439;-66
2022/03/03 04:33:42;;;;;;;27.07;11.70;;;;;;;;;;5022751;28;20214;-66
2022/03/03 04:36:08;;;;;;;36.27;13.07;;;;;;;;;;5025703;28;20190;-67
2022/03/03 04:38:33;;;;;;;31.77;13.63;;;;;;;;;;5027103;28;20277;-66
2022/03/03 04:40:58;;;;;;;29.67;13.20;;;;;;;;;;5025459;28;20217;-66
2022/03/03 04:43:24;;;;;;;30.80;13.13;;;;;;;;;;5031990;28;20236;-66
2022/03/03 04:45:49;;;;;;;30.13;13.77;;;;;;;;;;5025209;28;20224;-66
2022/03/03 04:48:15;;;;;;;30.23;13.53;;;;;;;;;;5030871;28;20233;-66
2022/03/03 04:50:40;;;;;;;32.10;12.80;;;;;;;;;;5025608;28;20235;-66
2022/03/03 04:53:05;;;;;;;34.13;13.80;;;;;;;;;;5025225;28;20182;-66
2022/03/03 04:55:31;;;;;;;28.43;13.17;;;;;;;;;;5023807;28;20217;-66
2022/03/03 04:57:56;;;;;;;33.53;13.57;;;;;;;;;;5021101;28;20174;-66
2022/03/03 05:00:21;;;;;;;28.50;12.53;;;;;;;;;;5024108;28;20266;-66
2022/03/03 05:02:47;;;;;;;29.07;12.20;;;;;;;;;;5027925;28;20304;-66
2022/03/03 05:05:12;;;;;;;29.70;13.27;;;;;;;;;;5023950;28;20186;-66
2022/03/03 05:07:37;;;;;;;28.57;12.90;;;;;;;;;;5022507;28;20196;-66
2022/03/03 05:10:04;;;;;;;28.20;13.13;;;;;;;;;;5023047;28;20275;-66
2022/03/03 05:12:29;;;;;;;27.37;12.47;;;;;;;;;;5025047;28;20182;-66
2022/03/03 05:14:54;;;;;;;30.77;13.17;;;;;;;;;;5022007;28;20569;-66
2022/03/03 05:17:20;;;;;;;29.90;12.83;;;;;;;;;;5025926;28;20614;-66
2022/03/03 05:19:45;;;;;;;35.20;13.60;;;;;;;;;;5024071;28;20182;-66
2022/03/03 05:22:11;;;;;;;30.77;12.90;;;;;;;;;;5023885;28;20178;-66
2022/03/03 05:24:38;;;;;;;29.50;13.70;;;;;;;;;;5029123;28;20187;-66
2022/03/03 05:27:04;;;;;;;28.53;13.23;;;;;;;;;;5026160;28;20170;-66
2022/03/03 05:29:29;;;;;;;29.13;13.03;;;;;;;;;;5032544;28;20186;-66
2022/03/03 05:31:57;;;;;;;31.77;14.80;;;;;;;;;;5023666;28;20274;-66
2022/03/03 05:34:23;;;;;;;28.40;13.17;;;;;;;;;;5018092;28;20646;-66
2022/03/03 05:36:48;;;;;;;33.33;14.13;;;;;;;;;;5024349;28;20202;-66
2022/03/03 05:39:15;;;;;;;32.90;13.60;;;;;;;;;;5018050;28;20669;-66
2022/03/03 05:41:40;;;;;;;30.40;14.07;;;;;;;;;;5021263;28;20192;-65
2022/03/03 05:44:09;;;;;;;28.77;13.80;;;;;;;;;;5026196;28;20266;-66
2022/03/03 05:46:34;;;;;;;27.97;13.23;;;;;;;;;;5028510;28;20661;-66
2022/03/03 05:48:59;;;;;;;27.83;13.23;;;;;;;;;;5032393;28;20195;-66
2022/03/03 05:51:25;;;;;;;29.93;12.80;;;;;;;;;;5030180;28;20184;-66
2022/03/03 05:53:50;;;;;;;25.47;13.30;;;;;;;;;;5030935;28;20202;-67
2022/03/03 05:56:17;;;;;;;29.13;13.77;;;;;;;;;;5025828;28;20709;-67
2022/03/03 05:58:46;;;;;;;32.60;13.63;;;;;;;;;;5018333;28;20686;-66
2022/03/03 06:01:13;;;;;;;29.93;13.67;;;;;;;;;;5024384;28;20185;-66
2022/03/03 06:03:39;;;;;;;29.50;13.30;;;;;;;;;;5024101;28;20582;-66
2022/03/03 06:06:15;;;;;;;29.90;13.30;;;;;;;;;;5029626;28;20185;-66
2022/03/03 06:08:52;;;;;;;26.23;12.27;;;;;;;;;;5025042;28;20555;-66
2022/03/03 06:11:20;;;;;;;34.53;14.17;;;;;;;;;;5024449;28;20536;-66
2022/03/03 06:13:47;;;;;;;29.87;13.87;;;;;;;;;;5020096;28;20242;-65
2022/03/03 06:16:19;;;;;;;29.57;14.07;;;;;;;;;;5029108;28;20215;-66
2022/03/03 06:18:47;;;;;;;29.17;12.93;;;;;;;;;;5021810;28;20221;-66
2022/03/03 06:21:13;;;;;;;27.30;12.43;;;;;;;;;;5028296;28;20328;-66
2022/03/03 06:23:39;;;;;;;31.73;13.40;;;;;;;;;;5023693;28;20249;-66
2022/03/03 06:26:07;;;;;;;29.73;13.17;;;;;;;;;;5026909;28;20471;-66
2022/03/03 06:28:34;;;;;;;35.90;14.10;;;;;;;;;;5028564;28;20205;-66
2022/03/03 06:30:59;;;;;;;29.37;13.40;;;;;;;;;;5028803;28;20230;-66
2022/03/03 06:33:26;;;;;;;27.57;13.03;;;;;;;;;;5024742;28;20246;-66
2022/03/03 06:35:51;;;;;;;30.40;14.07;;;;;;;;;;5030205;28;20187;-66
2022/03/03 06:38:17;;;;;;;28.37;12.70;;;;;;;;;;5028414;28;20189;-66
2022/03/03 06:40:43;;;;;;;28.57;13.07;;;;;;;;;;5037390;28;20599;-66
2022/03/03 06:43:08;;;;;;;36.17;13.80;;;;;;;;;;5021475;28;20357;-66
2022/03/03 06:45:34;;;;;;;25.77;12.83;;;;;;;;;;5019370;28;20672;-66
2022/03/03 06:48:02;;;;;;;30.43;13.20;;;;;;;;;;5021014;28;20745;-66
2022/03/03 06:50:28;;;;;;;28.13;13.53;;;;;;;;;;5026157;28;20245;-66
2022/03/03 06:52:54;;;;;;;30.37;13.97;;;;;;;;;;5024458;28;20189;-66
2022/03/03 06:55:25;;;;;;;31.83;14.77;;;;;;;;;;5021479;28;20210;-65
2022/03/03 06:57:53;;;;;;;35.33;14.17;;;;;;;;;;5027462;28;20177;-66
2022/03/03 07:00:20;;;;;;;26.13;14.13;;;;;;;;;;5026030;28;20186;-66
2022/03/03 07:02:47;;;;;;;34.57;14.13;;;;;;;;;;5028056;28;20825;-67
2022/03/03 07:05:14;;;;;;;31.53;14.50;;;;;;;;;;5025356;28;20188;-66
2022/03/03 07:07:42;;;;;;;33.93;15.30;;;;;;;;;;5030791;28;20170;-66
2022/03/03 07:10:08;;;;;;;31.03;14.07;;;;;;;;;;5024803;28;20285;-66
2022/03/03 07:12:34;;;;;;;32.40;14.90;;;;;;;;;;5025526;28;20262;-66
2022/03/03 07:15:00;;;;;;;34.67;15.37;;;;;;;;;;5019100;28;20732;-66
2022/03/03 07:17:47;;;;;;;28.30;14.23;;;;;;;;;;5019688;28;20191;-66
2022/03/03 07:20:36;;;;;;;32.83;15.07;;;;;;;;;;5023543;28;20201;-66
2022/03/03 07:23:03;;;;;;;31.67;14.63;;;;;;;;;;5024117;28;20187;-67
2022/03/03 07:25:43;;;;;;;30.97;14.50;;;;;;;;;;5026232;28;20178;-66
2022/03/03 07:28:11;;;;;;;28.40;14.57;;;;;;;;;;5026071;28;20767;-66
2022/03/03 07:30:43;;;;;;;29.57;14.10;;;;;;;;;;5028080;28;20205;-66
2022/03/03 07:33:12;;;;;;;29.70;15.23;;;;;;;;;;5024646;28;20678;-66
2022/03/03 07:35:40;;;;;;;30.43;15.67;;;;;;;;;;5028487;28;20660;-66
2022/03/03 07:38:19;;;;;;;29.60;14.73;;;;;;;;;;5025048;28;20593;-66
2022/03/03 07:40:44;;;;;;;35.57;15.73;;;;;;;;;;5032068;28;20787;-66
2022/03/03 07:43:11;;;;;;;30.77;15.20;;;;;;;;;;5028506;28;20279;-66
2022/03/03 07:45:38;;;;;;;32.40;15.73;;;;;;;;;;5029020;28;20197;-66
2022/03/03 07:48:03;;;;;;;35.00;15.23;;;;;;;;;;5021855;28;20202;-66
2022/03/03 07:50:29;;;;;;;33.73;15.63;;;;;;;;;;5027181;28;20190;-65
2022/03/03 07:52:55;;;;;;;27.10;15.13;;;;;;;;;;5030684;28;20769;-66
2022/03/03 07:55:21;;;;;;;34.13;15.70;;;;;;;;;;5036059;28;20221;-66
2022/03/03 07:57:57;;;;;;;34.40;15.80;;;;;;;;;;5024091;28;20237;-66
2022/03/03 08:00:23;;;;;;;28.23;15.00;;;;;;;;;;5030283;28;20198;-65
2022/03/03 08:02:53;;;;;;;33.67;16.63;;;;;;;;;;5025472;28;20309;-65
2022/03/03 08:05:19;;;;;;;30.03;14.60;;;;;;;;;;5028476;28;20674;-65
2022/03/03 08:07:46;;;;;;;29.07;15.10;;;;;;;;;;5025977;28;20737;-65
2022/03/03 08:10:14;;;;;;;31.23;14.97;;;;;;;;;;5027479;28;20190;-65
2022/03/03 08:12:40;;;;;;;30.90;16.27;;;;;;;;;;5027103;28;20744;-66
2022/03/03 08:15:07;;;;;;;35.37;15.97;;;;;;;;;;5025272;28;20239;-66
2022/03/03 08:17:34;;;;;;;28.27;15.10;;;;;;;;;;5029241;28;20197;-66
2022/03/03 08:20:04;;;;;;;28.20;14.60;;;;;;;;;;5023185;28;20209;-66
2022/03/03 08:22:30;;;;;;;30.70;15.53;;;;;;;;;;5035473;28;20182;-66
2022/03/03 08:24:57;;;;;;;31.50;15.87;;;;;;;;;;5028654;28;20174;-67
2022/03/03 08:27:23;;;;;;;28.13;14.27;;;;;;;;;;5031450;28;20840;-67
2022/03/03 08:29:49;;;;;;;33.87;15.83;;;;;;;;;;5029215;28;20565;-67
2022/03/03 08:32:16;;;;;;;27.60;14.40;;;;;;;;;;5027688;28;20206;-66
2022/03/03 08:35:10;;;;;;;30.53;14.87;;;;;;;;;;5030408;28;20243;-67
2022/03/03 08:37:39;;;;;;;30.47;15.43;;;;;;;;;;5026107;28;20708;-67
2022/03/03 08:40:07;;;;;;;24.17;14.13;;;;;;;;;;5022769;28;20288;-66
2022/03/03 08:42:38;;;;;;;27.97;15.03;;;;;;;;;;5024182;28;20190;-66
2022/03/03 08:45:09;;;;;;;28.97;14.33;;;;;;;;;;5024019;28;20178;-66
2022/03/03 08:47:35;;;;;;;29.57;15.27;;;;;;;;;;5024227;28;20202;-67
2022/03/03 08:50:11;;;;;;;29.30;14.57;;;;;;;;;;5026210;28;20208;-67
2022/03/03 08:52:41;;;;;;;26.17;13.73;;;;;;;;;;5023096;28;20186;-66
2022/03/03 08:55:11;;;;;;;27.97;14.93;;;;;;;;;;5026380;28;20221;-66
2022/03/03 08:57:40;;;;;;;27.37;14.33;;;;;;;;;;5022142;28;20549;-67
2022/03/03 09:00:08;;;;;;;26.83;14.10;;;;;;;;;;5018257;28;20198;-66
2022/03/03 09:02:34;;;;;;;29.07;15.27;;;;;;;;;;5025405;28;20312;-67
2022/03/03 09:05:00;;;;;;;32.23;16.27;;;;;;;;;;5026400;28;20320;-66
2022/03/03 09:07:25;;;;;;;27.40;14.63;;;;;;;;;;5024076;28;20657;-66
2022/03/03 09:09:50;;;;;;;25.73;13.90;;;;;;;;;;5017292;28;20514;-66
2022/03/03 09:12:16;;;;;;;28.03;15.23;;;;;;;;;;5025896;28;20202;-67
2022/03/03 09:14:41;;;;;;;24.70;13.77;;;;;;;;;;5023919;28;20222;-67
2022/03/03 09:17:07;;;;;;;31.03;13.57;;;;;;;;;;5032342;28;20197;-68
2022/03/03 09:19:32;;;;;;;31.33;15.37;;;;;;;;;;5028514;28;20534;-68
2022/03/03 09:21:58;;;;;;;26.43;14.77;;;;;;;;;;5028653;28;20598;-67
2022/03/03 09:24:23;;;;;;;26.13;14.13;;;;;;;;;;5027062;28;20613;-67
2022/03/03 09:26:51;;;;;;;27.17;14.97;;;;;;;;;;5025599;28;20185;-67
2022/03/03 09:29:17;;;;;;;28.47;14.87;;;;;;;;;;5023248;28;20751;-67
2022/03/03 09:31:44;;;;;;;25.00;14.80;;;;;;;;;;5028449;28;20669;-67
2022/03/03 09:34:09;;;;;;;29.87;15.17;;;;;;;;;;5024466;28;20206;-67
2022/03/03 09:36:35;;;;;;;26.60;14.73;;;;;;;;;;5027112;28;20276;-66
2022/03/03 09:39:01;;;;;;;29.63;15.87;;;;;;;;;;5022963;28;20182;-67
2022/03/03 09:41:26;;;;;;;25.47;15.03;;;;;;;;;;5026649;28;23986;-67
2022/03/03 09:43:51;;;;;;;25.83;15.03;;;;;;;;;;5020966;28;20626;-67
2022/03/03 09:46:16;;;;;;;29.90;16.10;;;;;;;;;;5026595;28;20181;-67
2022/03/03 09:48:42;;;;;;;29.73;15.70;;;;;;;;;;5022771;28;20787;-67
2022/03/03 09:51:07;;;;;;;29.70;17.20;;;;;;;;;;5028928;28;20819;-67
2022/03/03 09:53:33;;;;;;;28.60;16.13;;;;;;;;;;5019892;28;20309;-67
2022/03/03 09:55:58;;;;;;;27.17;15.03;;;;;;;;;;5022516;28;20266;-68
2022/03/03 09:58:23;;;;;;;26.73;15.97;;;;;;;;;;5020238;28;20182;-67
2022/03/03 10:00:49;;;;;;;24.13;13.30;;;;;;;;;;5021253;28;20201;-67
2022/03/03 10:03:16;;;;;;;24.43;12.73;;;;;;;;;;5024993;28;20236;-67
2022/03/03 10:05:47;;;;;;;22.77;12.10;;;;;;;;;;5022524;28;20578;-67
2022/03/03 10:08:15;;;;;;;24.47;12.97;;;;;;;;;;5027222;28;20190;-67
2022/03/03 10:10:43;;;;;;;21.47;12.30;;;;;;;;;;5021807;28;20276;-68
2022/03/03 10:13:10;;;;;;;19.50;11.30;;;;;;;;;;5032130;28;20190;-66
2022/03/03 10:15:36;;;;;;;20.40;12.17;;;;;;;;;;5023681;28;20535;-66
2022/03/03 10:18:10;;;;;;;21.13;12.17;;;;;;;;;;5025221;28;20256;-66
2022/03/03 10:20:45;;;;;;;21.30;11.67;;;;;;;;;;5025448;28;20198;-67
2022/03/03 10:23:11;;;;;;;18.30;10.53;;;;;;;;;;5020619;28;20299;-67
2022/03/03 10:25:39;;;;;;;21.17;12.27;;;;;;;;;;5026859;28;20614;-67
2022/03/03 10:28:10;;;;;;;21.83;11.70;;;;;;;;;;5027572;28;20312;-66
2022/03/03 10:31:02;;;;;;;18.63;11.77;;;;;;;;;;5033332;28;20202;-66
2022/03/03 10:33:36;;;;;;;17.07;10.63;;;;;;;;;;5025754;28;20268;-66
2022/03/03 10:36:15;;;;;;;16.93;10.77;;;;;;;;;;5027372;28;20178;-66
2022/03/03 10:38:48;;;;;;;18.90;11.20;;;;;;;;;;5020051;28;20368;-66
2022/03/03 10:41:31;;;;;;;20.27;12.60;;;;;;;;;;5023509;28;20398;-66
2022/03/03 10:44:00;;;;;;;18.90;10.67;;;;;;;;;;5024324;28;20266;-66
2022/03/03 10:46:25;;;;;;;20.33;11.07;;;;;;;;;;5025878;28;20202;-66
2022/03/03 10:48:51;;;;;;;16.90;10.30;;;;;;;;;;5017306;28;20186;-67
2022/03/03 10:51:16;;;;;;;16.20;9.93;;;;;;;;;;5023641;28;20196;-66
2022/03/03 10:53:43;;;;;;;17.60;10.17;;;;;;;;;;5025572;28;20220;-66
2022/03/03 10:56:12;;;;;;;19.67;11.13;;;;;;;;;;5025260;28;20288;-66
2022/03/03 10:58:57;;;;;;;16.23;10.40;;;;;;;;;;5023960;28;20178;-66
2022/03/03 11:01:30;;;;;;;16.13;10.03;;;;;;;;;;5020913;28;20197;-66
2022/03/03 11:03:56;;;;;;;17.90;10.17;;;;;;;;;;5022526;28;20196;-66
2022/03/03 11:06:29;;;;;;;19.35;10.50;;;;;;;;;;5022227;28;20641;-66
2022/03/03 11:08:57;;;;;;;18.97;10.60;;;;;;;;;;5025610;28;20186;-67
2022/03/03 11:11:23;;;;;;;15.27;10.57;;;;;;;;;;5025763;28;20194;-67
2022/03/03 11:13:50;;;;;;;16.87;10.13;;;;;;;;;;5026818;28;20209;-65
2022/03/03 11:16:21;;;;;;;16.67;10.33;;;;;;;;;;5029463;28;20265;-65
2022/03/03 11:18:47;;;;;;;17.13;10.03;;;;;;;;;;5032066;28;20188;-66
2022/03/03 11:21:14;;;;;;;18.02;11.23;;;;;;;;;;5026792;28;20671;-65
2022/03/03 11:23:56;;;;;;;16.40;10.15;;;;;;;;;;5034379;28;20269;-65
2022/03/03 11:26:41;;;;;;;17.77;9.40;;;;;;;;;;5025014;28;20185;-65
2022/03/03 11:29:15;;;;;;;17.05;10.27;;;;;;;;;;5025398;28;20182;-65
2022/03/03 11:31:43;;;;;;;17.47;10.37;;;;;;;;;;5019577;28;20228;-65
2022/03/03 11:34:32;;;;;;;19.40;10.13;;;;;;;;;;5023927;28;20905;-66
2022/03/03 11:37:00;;;;;;;18.30;9.10;;;;;;;;;;5016534;28;20190;-65
2022/03/03 11:39:38;;;;;;;16.15;9.70;;;;;;;;;;5026833;28;20711;-66
2022/03/03 11:42:26;;;;;;;14.88;9.13;;;;;;;;;;5026544;28;20186;-66
2022/03/03 11:44:58;;;;;;;15.45;8.63;;;;;;;;;;5020157;28;20187;-66
2022/03/03 11:47:34;;;;;;;12.95;8.40;;;;;;;;;;5027757;28;20186;-66
2022/03/03 11:50:24;;;;;;;14.35;8.73;;;;;;;;;;5026610;28;20204;-66
2022/03/03 11:53:12;;;;;;;14.95;9.10;;;;;;;;;;5027229;28;20598;-66
2022/03/03 11:55:43;;;;;;;15.88;9.15;;;;;;;;;;5020054;28;20240;-66
2022/03/03 11:58:15;;;;;;;13.85;8.65;;;;;;;;;;5022302;28;20284;-66
2022/03/03 12:00:58;;;;;;;11.75;7.65;;;;;;;;;;5017539;28;20204;-66
2022/03/03 12:03:25;;;;;;;13.60;8.40;;;;;;;;;;5026648;28;20248;-66
2022/03/03 12:06:11;;;;;;;12.30;7.53;;;;;;;;;;5033272;28;20246;-66
2022/03/03 12:08:41;;;;;;;13.73;7.90;;;;;;;;;;5021509;28;20289;-66
2022/03/03 12:11:15;;;;;;;14.20;7.93;;;;;;;;;;5023509;28;20217;-66
2022/03/03 12:13:47;;;;;;;13.63;8.98;;;;;;;;;;5028559;28;20305;-66
2022/03/03 12:16:35;;;;;;;13.27;9.00;;;;;;;;;;5024041;28;20226;-66
2022/03/03 12:19:00;;;;;;;15.85;9.27;;;;;;;;;;5022990;28;20195;-66
2022/03/03 12:21:57;;;;;;;12.65;8.43;;;;;;;;;;5025556;28;20538;-67
2022/03/03 12:24:28;;;;;;;13.60;8.50;;;;;;;;;;5029329;28;20218;-66
2022/03/03 12:26:56;;;;;;;14.65;8.80;;;;;;;;;;5042930;28;20184;-67
2022/03/03 12:29:29;;;;;;;15.93;8.05;;;;;;;;;;5032029;28;20183;-67
2022/03/03 12:31:54;;;;;;;13.15;8.00;;;;;;;;;;5040304;28;20241;-68
2022/03/03 12:34:21;;;;;;;14.43;7.45;;;;;;;;;;5029907;28;20207;-67
2022/03/03 12:36:46;;;;;;;11.43;7.25;;;;;;;;;;5040875;28;20181;-67
2022/03/03 12:39:13;;;;;;;19.13;7.97;;;;;;;;;;5029215;28;20257;-67
2022/03/03 12:41:40;;;;;;;11.80;7.20;;;;;;;;;;5042138;28;20910;-69
2022/03/03 12:44:11;;;;;;;11.30;7.68;;;;;;;;;;5028898;28;20647;-67
2022/03/03 12:46:37;;;;;;;12.88;8.43;;;;;;;;;;5037926;28;20577;-67
2022/03/03 12:49:06;;;;;;;11.70;7.25;;;;;;;;;;5033183;28;20641;-67
2022/03/03 12:51:32;;;;;;;16.08;8.52;;;;;;;;;;5034667;28;20766;-67
2022/03/03 12:54:02;;;;;;;11.65;8.48;;;;;;;;;;5036031;28;20201;-67
2022/03/03 12:56:28;;;;;;;14.18;8.70;;;;;;;;;;5034035;28;20272;-66
2022/03/03 12:58:54;;;;;;;12.18;8.75;;;;;;;;;;5040492;28;20264;-68
2022/03/03 13:01:21;;;;;;;13.30;9.02;;;;;;;;;;5027565;28;20281;-66
2022/03/03 13:03:46;;;;;;;15.27;9.13;;;;;;;;;;5042730;28;20693;-66
2022/03/03 13:06:11;;;;;;;17.52;8.98;;;;;;;;;;5030307;28;20273;-66
2022/03/03 13:08:38;;;;;;;15.73;9.68;;;;;;;;;;5044412;28;20201;-66
2022/03/03 13:11:05;;;;;;;14.35;10.00;;;;;;;;;;5026471;28;20269;-67
2022/03/03 13:13:43;;;;;;;12.77;8.65;;;;;;;;;;5042006;28;20507;-67
2022/03/03 13:16:15;;;;;;;15.20;8.93;;;;;;;;;;5025983;28;20186;-66
2022/03/03 13:18:42;;;;;;;16.55;8.90;;;;;;;;;;5039770;28;20584;-66
2022/03/03 13:21:10;;;;;;;17.38;9.57;;;;;;;;;;5027277;28;20186;-66
2022/03/03 13:23:58;;;;;;;14.00;8.65;;;;;;;;;;5041015;28;20272;-67
2022/03/03 13:26:27;;;;;;;14.82;8.85;;;;;;;;;;5027384;28;20182;-66
2022/03/03 13:28:56;;;;;;;15.35;9.20;;;;;;;;;;5034420;28;20214;-67
2022/03/03 13:31:23;;;;;;;14.90;9.48;;;;;;;;;;5029225;28;20210;-66
2022/03/03 13:33:53;;;;;;;13.90;8.90;;;;;;;;;;5030694;28;20205;-67
2022/03/03 13:36:26;;;;;;;13.82;8.40;;;;;;;;;;5032923;28;20174;-66
2022/03/03 13:38:57;;;;;;;16.20;10.38;;;;;;;;;;5022000;28;20202;-67
2022/03/03 13:41:34;;;;;;;16.17;9.93;;;;;;;;;;5035591;28;20174;-66
2022/03/03 13:44:19;;;;;;;14.05;9.60;;;;;;;;;;5022292;28;20191;-66
2022/03/03 13:46:59;;;;;;;14.73;9.50;;;;;;;;;;5021493;28;20197;-67
2022/03/03 13:49:36;;;;;;;14.80;9.38;;;;;;;;;;5030368;28;20192;-67
2022/03/03 13:52:04;;;;;;;14.50;9.85;;;;;;;;;;5027610;28;20232;-67
2022/03/03 13:54:53;;;;;;;15.20;9.05;;;;;;;;;;5030905;28;20220;-66
2022/03/03 13:57:37;;;;;;;17.33;9.40;;;;;;;;;;5019556;28;20205;-67
2022/03/03 14:00:06;;;;;;;14.00;9.45;;;;;;;;;;5027070;28;20186;-66
2022/03/03 14:02:31;;;;;;;18.85;10.05;;;;;;;;;;5022421;28;20234;-66
2022/03/03 14:05:06;;;;;;;13.75;9.40;;;;;;;;;;5024848;28;20198;-67
2022/03/03 14:07:37;;;;;;;15.68;9.98;;;;;;;;;;5038270;28;20199;-67
2022/03/03 14:10:06;;;;;;;14.30;9.30;;;;;;;;;;5034414;28;20192;-66
2022/03/03 14:12:32;;;;;;;16.58;9.48;;;;;;;;;;5026430;28;20182;-66
2022/03/03 14:14:57;;;;;;;14.30;9.40;;;;;;;;;;5031616;28;20202;-67
2022/03/03 14:17:22;;;;;;;15.13;10.00;;;;;;;;;;5026685;28;20194;-66
2022/03/03 14:19:48;;;;;;;16.77;10.02;;;;;;;;;;5027367;28;20421;-66
2022/03/03 14:22:22;;;;;;;14.60;9.82;;;;;;;;;;5025052;28;20189;-67
2022/03/03 14:24:48;;;;;;;16.40;9.98;;;;;;;;;;5034896;28;20705;-67